Bergamot Ace — ZGAS5 — position and weather

sailwx.info

Track history (hours):
 
Tides and Currents Weather Stations Pressure Air Temp Water Temp Dewpoint Dewpoint Depression Visibility Wind Speed Wind Dir Waves Ship Positions

Bergamot Ace

Last reported at 2017-Apr-16 14:37 UTC. Time now 2017-Apr-26 01:58 UTC.
Position N 01°15' E 104°03'.
Warning: this ship's position is 9 days out of date.

Length 186 m; draft 8 m.

Type: Cargo ship. MMSI: 319740000.

Date/timePositionNaut miles runAvg speedWind from/ knotsBaromVisibWave heightAir tempDewpointWater temp
2017-Apr-16 14:37N 01°15' E 104°03'710.0
2017-Apr-16 13:58N 01°13' E 103°57'4 8.5
2017-Apr-16 13:30N 01°12' E 103°53'3 5.1
2017-Apr-16 13:00N 01°12' E 103°51'3 5.4
2017-Apr-16 12:30N 01°13' E 103°48'4 9.0
2017-Apr-16 12:00N 01°16' E 103°45'1 1.9
2017-Apr-16 11:27N 01°17' E 103°45'0 0.0
2017-Apr-16 10:57N 01°17' E 103°45'0 0.0
2017-Apr-16 10:30N 01°17' E 103°45'0 0.0
2017-Apr-16 09:57N 01°17' E 103°45'0 0.0
2017-Apr-16 09:30N 01°17' E 103°45'0 0.0
2017-Apr-16 08:57N 01°17' E 103°45'0 0.0
2017-Apr-16 08:27N 01°17' E 103°45'0 0.0
2017-Apr-16 07:54N 01°17' E 103°45'0 0.0
2017-Apr-16 07:30N 01°17' E 103°45'0 0.0
2017-Apr-16 06:57N 01°17' E 103°45'0 0.0
2017-Apr-16 06:30N 01°17' E 103°45'0 0.0
2017-Apr-16 05:57N 01°17' E 103°45'0 0.0
2017-Apr-16 05:30N 01°17' E 103°45'0 0.0
2017-Apr-16 04:57N 01°17' E 103°45'0 0.0
2017-Apr-16 04:30N 01°17' E 103°45'0 0.0
2017-Apr-16 03:57N 01°17' E 103°45'0 0.0
2017-Apr-16 03:27N 01°17' E 103°45'0 0.0
2017-Apr-16 02:57N 01°17' E 103°45'0 0.0
2017-Apr-16 02:27N 01°17' E 103°45'0 0.0
2017-Apr-16 01:57N 01°17' E 103°45'0 0.0
2017-Apr-16 01:21N 01°17' E 103°45'0 0.2
2017-Apr-16 01:00N 01°17' E 103°45'1 1.6
2017-Apr-16 00:31N 01°17' E 103°45'3 5.2
2017-Apr-16 00:00N 01°15' E 103°46'5 9.5
2017-Apr-15 23:30N 01°12' E 103°50'4 8.8
2017-Apr-15 23:00N 01°14' E 103°54'2 4.2
2017-Apr-15 22:30N 01°14' E 103°56'3 6.4
2017-Apr-15 22:00N 01°15' E 103°59'4 7.3
2017-Apr-15 21:30N 01°16' E 104°03'  
Track history (hours):
 
Tides and Currents Weather Stations Pressure Air Temp Water Temp Dewpoint Dewpoint Depression Visibility Wind Speed Wind Dir Waves Ship Positions

Bergamot Ace

Last reported at 2017-Apr-16 14:37 UTC. Time now 2017-Apr-26 01:58 UTC.
Position N 01°15' E 104°03'.
Warning: this ship's position is 9 days out of date.

Length 186 m; draft 8 m.

Type: Cargo ship. MMSI: 319740000.

Date/timePositionNaut miles runAvg speedWind from/ knotsBaromVisibWave heightAir tempDewpointWater temp
2017-Apr-16 14:37N 01°15' E 104°03'710.0
2017-Apr-16 13:58N 01°13' E 103°57'4 8.5
2017-Apr-16 13:30N 01°12' E 103°53'3 5.1
2017-Apr-16 13:00N 01°12' E 103°51'3 5.4
2017-Apr-16 12:30N 01°13' E 103°48'4 9.0
2017-Apr-16 12:00N 01°16' E 103°45'1 1.9
2017-Apr-16 11:27N 01°17' E 103°45'0 0.0
2017-Apr-16 10:57N 01°17' E 103°45'0 0.0
2017-Apr-16 10:30N 01°17' E 103°45'0 0.0
2017-Apr-16 09:57N 01°17' E 103°45'0 0.0
2017-Apr-16 09:30N 01°17' E 103°45'0 0.0
2017-Apr-16 08:57N 01°17' E 103°45'0 0.0
2017-Apr-16 08:27N 01°17' E 103°45'0 0.0
2017-Apr-16 07:54N 01°17' E 103°45'0 0.0
2017-Apr-16 07:30N 01°17' E 103°45'0 0.0
2017-Apr-16 06:57N 01°17' E 103°45'0 0.0
2017-Apr-16 06:30N 01°17' E 103°45'0 0.0
2017-Apr-16 05:57N 01°17' E 103°45'0 0.0
2017-Apr-16 05:30N 01°17' E 103°45'0 0.0
2017-Apr-16 04:57N 01°17' E 103°45'0 0.0
2017-Apr-16 04:30N 01°17' E 103°45'0 0.0
2017-Apr-16 03:57N 01°17' E 103°45'0 0.0
2017-Apr-16 03:27N 01°17' E 103°45'0 0.0
2017-Apr-16 02:57N 01°17' E 103°45'0 0.0
2017-Apr-16 02:27N 01°17' E 103°45'0 0.0
2017-Apr-16 01:57N 01°17' E 103°45'0 0.0
2017-Apr-16 01:21N 01°17' E 103°45'0 0.2
2017-Apr-16 01:00N 01°17' E 103°45'1 1.6
2017-Apr-16 00:31N 01°17' E 103°45'3 5.2
2017-Apr-16 00:00N 01°15' E 103°46'5 9.5
2017-Apr-15 23:30N 01°12' E 103°50'4 8.8
2017-Apr-15 23:00N 01°14' E 103°54'2 4.2
2017-Apr-15 22:30N 01°14' E 103°56'3 6.4
2017-Apr-15 22:00N 01°15' E 103°59'4 7.3
2017-Apr-15 21:30N 01°16' E 104°03'  

Dump ship's entire track history